Terminal Aerodrome Forecast
Issued by NWS Shreveport, LA

Home | Current Version | Previous Version | Text Only | Print | Product List | Glossary On
Versions: 1 2 3 4 5 6 7 8 9 10 11 12 13 14 15
793
FTUS44 KSHV 141722
TAFGGG
TAF
KGGG 141722Z 1418/1518 17012KT P6SM SCT025 BKN045
      TEMPO 1418/1420 BKN030
     FM150000 15010KT P6SM BKN050
      TEMPO 1503/1506 BKN015
     FM150600 18010KT P6SM VCTS OVC010CB
      TEMPO 1510/1514 3SM -TSRA BR OVC005CB
     FM151400 27012KT P6SM VCTS OVC010CB
      TEMPO 1514/1518 34012G18KT 3SM -TSRA BR OVC020CB=

USA.gov is the U.S. government's official web portal to all federal, state and local government web resources and services.